createdAt,value
2018-02-15T00:01:26.644Z,18.60
2018-02-15T00:03:54.145Z,21.90
2018-02-15T00:06:21.633Z,20.20
2018-02-15T00:08:49.136Z,22.55
2018-02-15T00:11:16.614Z,16.75
2018-02-15T00:13:44.151Z,22.40
2018-02-15T00:16:12.028Z,22.00
2018-02-15T00:18:39.528Z,19.92
2018-02-15T00:21:07.002Z,18.45
2018-02-15T00:23:34.503Z,19.95
2018-02-15T00:26:01.989Z,20.58
2018-02-15T00:28:29.492Z,19.35
2018-02-15T00:30:57.385Z,18.92
2018-02-15T00:33:24.893Z,19.77
2018-02-15T00:35:52.374Z,19.52
2018-02-15T00:38:19.860Z,20.90
2018-02-15T00:40:47.364Z,20.12
2018-02-15T00:43:14.848Z,19.27
2018-02-15T00:45:42.352Z,18.15
2018-02-15T00:48:09.836Z,19.60
2018-02-15T00:50:37.336Z,20.42
2018-02-15T00:53:04.821Z,18.95
2018-02-15T00:55:32.324Z,21.10
2018-02-15T00:57:59.808Z,20.27
2018-02-15T01:00:27.308Z,16.25
2018-02-15T01:02:55.181Z,23.02
2018-02-15T01:05:22.681Z,16.85
2018-02-15T01:07:50.183Z,18.48
2018-02-15T01:10:17.692Z,18.02
2018-02-15T01:12:45.177Z,19.40
2018-02-15T01:15:13.080Z,19.92
2018-02-15T01:17:40.558Z,22.83
2018-02-15T01:20:08.051Z,16.73
2018-02-15T01:22:35.532Z,18.45
2018-02-15T01:25:03.042Z,19.40
2018-02-15T01:27:30.910Z,19.87
2018-02-15T01:29:58.419Z,20.95
2018-02-15T01:32:25.909Z,21.87
2018-02-15T01:34:53.403Z,16.95
2018-02-15T01:37:20.890Z,18.17
2018-02-15T01:39:48.383Z,22.48
2018-02-15T01:42:15.865Z,22.00
2018-02-15T01:44:43.408Z,20.20
2018-02-15T01:47:11.295Z,20.58
2018-02-15T01:52:42.211Z,22.55
2018-02-15T01:55:09.744Z,18.55
2018-02-15T01:57:37.623Z,17.73
2018-02-15T02:00:05.520Z,18.85
2018-02-15T02:02:33.081Z,20.55
2018-02-15T02:05:00.980Z,20.00
2018-02-15T02:07:28.464Z,18.67
2018-02-15T02:09:55.972Z,21.83
2018-02-15T02:12:23.494Z,24.63
2018-02-15T02:14:50.992Z,21.05
2018-02-15T02:17:18.479Z,21.40
2018-02-15T02:19:45.980Z,20.20
2018-02-15T02:22:13.860Z,19.90
2018-02-15T02:24:41.740Z,23.73
2018-02-15T02:27:09.279Z,21.25
2018-02-15T02:29:36.754Z,18.25
2018-02-15T02:32:04.255Z,20.98
2018-02-15T02:34:32.144Z,21.58
2018-02-15T02:37:00.043Z,20.98
2018-02-15T02:39:27.528Z,22.30
2018-02-15T02:41:55.052Z,23.10
2018-02-15T02:44:22.932Z,22.48
2018-02-15T02:46:50.823Z,21.58
2018-02-15T02:49:18.767Z,20.30
2018-02-15T02:51:46.354Z,22.77
2018-02-15T02:54:13.837Z,20.23
2018-02-15T02:56:41.737Z,20.20
2018-02-15T02:59:09.224Z,18.80
2018-02-15T03:01:36.715Z,21.65
2018-02-15T03:04:04.195Z,20.30
2018-02-15T03:06:31.695Z,21.15
2018-02-15T03:08:59.267Z,20.62
2018-02-15T03:11:26.771Z,22.23
2018-02-15T03:13:54.312Z,21.80
2018-02-15T03:16:22.213Z,20.25
2018-02-15T03:18:49.696Z,21.98
2018-02-15T03:21:17.223Z,22.02
2018-02-15T03:23:44.708Z,21.02
2018-02-15T03:26:12.613Z,24.87
2018-02-15T03:28:40.100Z,21.98
2018-02-15T03:31:07.609Z,21.50
2018-02-15T03:33:35.200Z,22.17
2018-02-15T03:36:03.097Z,24.80
2018-02-15T03:38:30.652Z,23.42
2018-02-15T03:40:58.560Z,21.27
2018-02-15T03:43:26.044Z,22.17
2018-02-15T03:45:53.547Z,26.55
2018-02-15T03:48:21.032Z,24.17
2018-02-15T03:50:48.612Z,21.55
2018-02-15T03:53:16.104Z,24.63
2018-02-15T03:55:43.584Z,21.87
2018-02-15T03:58:11.080Z,28.42
2018-02-15T04:00:38.558Z,27.73
2018-02-15T04:03:06.060Z,18.98
2018-02-15T04:05:33.548Z,29.33
2018-02-15T04:08:01.451Z,29.70
2018-02-15T04:10:28.942Z,28.20
2018-02-15T04:12:56.447Z,31.73
2018-02-15T04:15:23.945Z,29.95
2018-02-15T04:17:51.448Z,33.35
2018-02-15T04:20:18.927Z,36.78
2018-02-15T04:22:46.427Z,33.35
2018-02-15T04:25:14.008Z,34.90
2018-02-15T04:27:41.513Z,32.15
2018-02-15T04:30:08.990Z,42.65
2018-02-15T04:32:36.495Z,39.90
2018-02-15T04:35:03.985Z,38.25
2018-02-15T04:37:31.488Z,43.55
2018-02-15T04:39:58.975Z,46.63
2018-02-15T04:42:26.481Z,41.15
2018-02-15T04:44:53.958Z,45.85
2018-02-15T04:47:21.458Z,45.70
2018-02-15T04:49:49.345Z,50.40
2018-02-15T04:52:16.852Z,41.75
2018-02-15T04:54:44.360Z,43.10
2018-02-15T04:57:11.859Z,50.15
2018-02-15T04:59:39.344Z,46.03
2018-02-15T05:02:06.848Z,48.53
2018-02-15T05:04:34.337Z,45.92
2018-02-15T05:07:01.923Z,56.25
2018-02-15T05:09:29.908Z,48.72
2018-02-15T05:11:57.819Z,48.83
2018-02-15T05:14:25.312Z,41.60
2018-02-15T05:16:52.820Z,51.60
2018-02-15T05:19:20.333Z,51.35
2018-02-15T05:21:47.815Z,52.97
2018-02-15T05:24:15.323Z,50.67
2018-02-15T05:26:42.802Z,52.90
2018-02-15T05:29:10.300Z,40.67
2018-02-15T05:31:37.795Z,53.35
2018-02-15T05:34:05.295Z,57.58
2018-02-15T05:36:32.771Z,48.10
2018-02-15T05:39:00.266Z,51.20
2018-02-15T05:41:28.245Z,55.83
2018-02-15T05:43:56.249Z,54.53
2018-02-15T05:46:23.740Z,53.38
2018-02-15T05:48:51.260Z,57.22
2018-02-15T05:51:18.837Z,50.25
2018-02-15T05:53:46.826Z,48.63
2018-02-15T05:56:14.711Z,57.25
2018-02-15T05:58:42.624Z,57.25
2018-02-15T06:01:10.108Z,58.53
2018-02-15T06:03:37.608Z,58.33
2018-02-15T06:06:05.096Z,54.38
2018-02-15T06:08:33.020Z,55.67
2018-02-15T06:11:00.515Z,57.60
2018-02-15T06:13:28.020Z,54.25
2018-02-15T06:15:55.898Z,42.62
2018-02-15T06:18:23.797Z,51.40
2018-02-15T06:20:51.285Z,54.40
2018-02-15T06:23:18.779Z,51.22
2018-02-15T06:25:46.260Z,60.67
2018-02-15T06:28:13.765Z,53.55
2018-02-15T06:30:41.732Z,53.97
2018-02-15T06:33:09.222Z,47.72
2018-02-15T06:35:37.108Z,50.55
2018-02-15T06:38:04.616Z,50.58
2018-02-15T06:40:32.107Z,50.22
2018-02-15T06:42:59.601Z,48.42
2018-02-15T06:45:27.495Z,47.67
2018-02-15T06:47:54.980Z,42.80
2018-02-15T06:50:22.480Z,45.38
2018-02-15T06:52:49.963Z,41.50
2018-02-15T06:55:17.459Z,46.30
2018-02-15T06:57:44.936Z,45.35
2018-02-15T07:00:12.908Z,45.70
2018-02-15T07:02:40.392Z,47.97
2018-02-15T07:05:08.288Z,45.95
2018-02-15T07:07:35.774Z,48.65
2018-02-15T07:10:03.295Z,38.88
2018-02-15T07:12:30.770Z,45.28
2018-02-15T07:14:58.277Z,41.03
2018-02-15T07:17:25.768Z,34.03
2018-02-15T07:19:53.258Z,37.60
2018-02-15T07:22:20.760Z,45.75
2018-02-15T07:24:48.652Z,37.95
2018-02-15T07:27:16.532Z,33.63
2018-02-15T07:29:44.088Z,35.60
2018-02-15T07:32:11.996Z,34.53
2018-02-15T07:34:39.497Z,35.38
2018-02-15T07:37:06.979Z,35.90
2018-02-15T07:39:34.503Z,36.92
2018-02-15T07:42:01.983Z,34.20
2018-02-15T07:44:29.478Z,32.80
2018-02-15T07:46:56.968Z,33.58
2018-02-15T07:49:24.478Z,37.35
2018-02-15T07:51:51.985Z,36.30
2018-02-15T07:54:19.492Z,34.85
2018-02-15T07:56:46.975Z,38.85
2018-02-15T07:59:14.870Z,30.35
2018-02-15T08:01:42.753Z,36.95
2018-02-15T08:04:10.305Z,33.60
2018-02-15T08:06:38.191Z,33.38
2018-02-15T08:09:06.080Z,32.60
2018-02-15T08:11:33.974Z,33.33
2018-02-15T08:14:01.516Z,29.48
2018-02-15T08:16:29.416Z,28.67
2018-02-15T08:18:56.903Z,30.52
2018-02-15T08:21:24.404Z,31.12
2018-02-15T08:23:51.889Z,31.80
2018-02-15T08:26:19.392Z,35.30
2018-02-15T08:28:46.874Z,30.92
2018-02-15T08:31:14.366Z,30.50
2018-02-15T08:33:41.856Z,31.87
2018-02-15T08:36:09.350Z,33.65
2018-02-15T08:38:36.822Z,33.20
2018-02-15T08:41:04.324Z,40.17
2018-02-15T08:43:31.807Z,35.40
2018-02-15T08:45:59.330Z,37.03
2018-02-15T08:48:26.911Z,31.45
2018-02-15T08:50:54.803Z,31.48
2018-02-15T08:53:22.684Z,32.58
2018-02-15T08:55:50.609Z,31.45
2018-02-15T08:58:18.066Z,30.85
2018-02-15T09:00:45.573Z,35.72
2018-02-15T09:03:13.062Z,29.30
2018-02-15T09:05:40.960Z,31.85
2018-02-15T09:08:08.915Z,36.55
2018-02-15T09:10:36.417Z,40.58
2018-02-15T09:13:03.895Z,36.92
2018-02-15T09:15:31.440Z,29.52
2018-02-15T09:17:59.320Z,34.63
2018-02-15T09:20:26.849Z,31.25
2018-02-15T09:22:54.336Z,27.73
2018-02-15T09:25:21.843Z,34.90
2018-02-15T09:27:49.720Z,30.33
2018-02-15T09:30:17.615Z,37.67
2018-02-15T09:32:45.187Z,31.37
2018-02-15T09:35:12.743Z,35.53
2018-02-15T09:37:40.661Z,31.35
2018-02-15T09:40:08.156Z,30.95
2018-02-15T09:42:35.656Z,32.83
2018-02-15T09:45:03.535Z,28.17
2018-02-15T09:47:31.602Z,28.67
2018-02-15T09:49:59.523Z,34.40
2018-02-15T09:52:27.073Z,27.17
2018-02-15T09:54:54.568Z,35.97
2018-02-15T09:57:22.077Z,32.45
2018-02-15T09:59:49.560Z,33.42
2018-02-15T10:02:17.055Z,32.35
2018-02-15T10:04:44.936Z,32.30
2018-02-15T10:07:12.832Z,34.65
2018-02-15T10:09:40.316Z,29.70
2018-02-15T10:12:07.815Z,29.33
2018-02-15T10:14:35.304Z,30.58
2018-02-15T10:17:02.812Z,27.95
2018-02-15T10:19:30.294Z,28.58
2018-02-15T10:21:57.805Z,29.73
2018-02-15T10:24:26.085Z,30.42
2018-02-15T10:26:53.592Z,30.70
2018-02-15T10:29:21.085Z,30.77
2018-02-15T10:31:48.582Z,27.67
2018-02-15T10:34:16.059Z,32.83
2018-02-15T10:36:43.560Z,31.58
2018-02-15T10:39:11.144Z,23.90
2018-02-15T10:41:38.715Z,32.53
2018-02-15T10:44:06.205Z,28.48
2018-02-15T10:46:34.108Z,30.60
2018-02-15T10:49:01.588Z,33.65
2018-02-15T10:51:29.092Z,28.10
2018-02-15T10:53:56.571Z,27.98
2018-02-15T10:56:24.100Z,28.52
2018-02-15T10:58:51.620Z,29.20
2018-02-15T11:01:24.848Z,33.22
2018-02-15T11:03:57.956Z,33.97
2018-02-15T11:06:25.447Z,29.87
2018-02-15T11:08:52.932Z,33.95
2018-02-15T11:11:20.412Z,33.28
2018-02-15T11:13:47.933Z,33.65
2018-02-15T11:16:15.416Z,29.52
2018-02-15T11:18:42.934Z,26.90
2018-02-15T11:21:10.416Z,31.65
2018-02-15T11:23:37.948Z,26.60
2018-02-15T11:26:05.430Z,36.50
2018-02-15T11:28:33.036Z,29.80
2018-02-15T11:31:00.524Z,36.83
2018-02-15T11:33:28.500Z,33.05
2018-02-15T11:35:56.388Z,33.55
2018-02-15T11:38:24.296Z,30.50
2018-02-15T11:40:51.770Z,33.28
2018-02-15T11:43:19.392Z,28.35
2018-02-15T11:45:46.872Z,31.85
2018-02-15T11:48:14.974Z,36.83
2018-02-15T11:50:42.464Z,30.42
2018-02-15T11:53:10.120Z,29.00
2018-02-15T11:55:37.656Z,32.15
2018-02-15T11:58:05.266Z,28.95
2018-02-15T12:00:32.807Z,31.23
2018-02-15T12:03:00.304Z,29.55
2018-02-15T12:05:27.787Z,33.05
2018-02-15T12:07:55.936Z,33.15
2018-02-15T12:10:23.820Z,33.97
2018-02-15T12:12:52.220Z,33.67
2018-02-15T12:15:20.169Z,31.27
2018-02-15T12:17:47.696Z,33.60
2018-02-15T12:20:15.376Z,30.40
2018-02-15T12:22:42.876Z,30.58
2018-02-15T12:25:10.369Z,31.30
2018-02-15T12:27:37.878Z,35.30
2018-02-15T12:30:05.371Z,36.33
2018-02-15T12:32:32.863Z,26.10
2018-02-15T12:35:00.343Z,28.62
2018-02-15T12:37:27.869Z,31.10
2018-02-15T12:39:55.362Z,29.48
2018-02-15T12:42:22.848Z,30.35
2018-02-15T12:44:50.348Z,31.20
2018-02-15T12:47:18.228Z,31.40
2018-02-15T12:49:46.118Z,35.20
2018-02-15T12:52:13.996Z,33.10
2018-02-15T12:54:41.893Z,26.75
2018-02-15T12:57:09.384Z,27.73
2018-02-15T12:59:36.896Z,31.65
2018-02-15T13:02:04.389Z,29.08
2018-02-15T13:04:32.362Z,33.40
2018-02-15T13:06:59.841Z,29.35
2018-02-15T13:09:27.344Z,32.95
2018-02-15T13:11:54.828Z,34.63
2018-02-15T13:14:22.360Z,31.33
2018-02-15T13:16:56.030Z,33.67
2018-02-15T13:19:35.395Z,31.90
2018-02-15T13:24:57.100Z,30.40
2018-02-15T13:27:47.332Z,32.85
2018-02-15T13:30:14.959Z,34.67
2018-02-15T13:32:42.840Z,34.03
2018-02-15T13:35:10.780Z,26.75
2018-02-15T13:37:38.276Z,30.75
2018-02-15T13:40:05.771Z,35.22
2018-02-15T13:42:33.736Z,33.75
2018-02-15T13:45:01.638Z,34.00
2018-02-15T13:47:29.123Z,31.23
2018-02-15T13:49:56.624Z,32.45
2018-02-15T13:52:24.107Z,36.92
2018-02-15T13:54:51.602Z,34.38
2018-02-15T13:57:19.485Z,33.30
2018-02-15T13:59:47.456Z,31.52
2018-02-15T14:02:14.930Z,31.60
2018-02-15T14:04:42.817Z,5.43
2018-02-15T14:07:10.788Z,16.33
2018-02-15T14:09:38.281Z,18.12
2018-02-15T14:12:05.759Z,24.52
2018-02-15T14:14:33.255Z,23.83
2018-02-15T14:17:00.775Z,23.40
2018-02-15T14:19:28.673Z,28.98
2018-02-15T14:21:56.150Z,25.75
2018-02-15T14:24:23.648Z,36.35
2018-02-15T14:26:51.135Z,32.83
2018-02-15T14:29:18.649Z,28.20
2018-02-15T14:31:46.532Z,34.13
2018-02-15T14:34:14.016Z,64.97
2018-02-15T14:36:41.547Z,32.92
2018-02-15T14:39:09.028Z,41.25
2018-02-15T14:41:36.922Z,34.53
2018-02-15T14:44:04.796Z,35.10
2018-02-15T14:46:32.691Z,28.87
2018-02-15T14:49:00.176Z,32.38
2018-02-15T14:51:27.683Z,27.65
2018-02-15T14:53:55.169Z,30.92
2018-02-15T14:56:22.671Z,9.93
2018-02-15T14:58:50.242Z,17.33
2018-02-15T15:01:17.752Z,21.58
2018-02-15T15:03:45.231Z,23.42
2018-02-15T15:06:12.732Z,26.20
2018-02-15T15:08:40.711Z,27.70
2018-02-15T15:11:08.345Z,27.77
2018-02-15T15:13:35.823Z,33.13
2018-02-15T15:16:03.333Z,31.48
2018-02-15T15:18:31.315Z,32.50
2018-02-15T15:20:59.224Z,33.72
2018-02-15T15:23:26.717Z,30.60
2018-02-15T15:25:54.223Z,29.98
2018-02-15T15:28:21.707Z,31.17
2018-02-15T15:30:49.620Z,34.95
2018-02-15T15:33:17.099Z,32.72
2018-02-15T15:35:44.604Z,38.45
2018-02-15T15:38:12.079Z,32.78
2018-02-15T15:40:39.579Z,35.53
2018-02-15T15:43:07.465Z,43.63
2018-02-15T15:45:35.007Z,37.33
2018-02-15T15:48:02.488Z,35.33
2018-02-15T15:50:30.392Z,40.90
2018-02-15T15:52:57.880Z,39.90
2018-02-15T15:55:25.379Z,36.15
2018-02-15T15:57:52.866Z,37.13
2018-02-15T16:00:20.352Z,39.35
2018-02-15T16:02:48.248Z,39.15
2018-02-15T16:05:15.728Z,26.73
2018-02-15T16:07:43.273Z,24.60
2018-02-15T16:10:11.162Z,26.27
2018-02-15T16:12:39.055Z,28.20
2018-02-15T16:15:06.541Z,31.33
2018-02-15T16:17:34.045Z,40.88
2018-02-15T16:20:01.528Z,36.17
2018-02-15T16:22:29.203Z,36.05
2018-02-15T16:24:56.682Z,36.75
2018-02-15T16:27:24.179Z,35.53
2018-02-15T16:29:51.663Z,40.25
2018-02-15T16:32:19.159Z,37.97
2018-02-15T16:34:46.645Z,36.08
2018-02-15T16:37:14.146Z,41.03
2018-02-15T16:39:42.023Z,43.03
2018-02-15T16:42:09.920Z,40.55
2018-02-15T16:44:37.399Z,44.80
2018-02-15T16:47:04.906Z,44.25
2018-02-15T16:49:32.399Z,43.15
2018-02-15T16:51:59.900Z,49.03
2018-02-15T16:54:27.384Z,49.17
2018-02-15T16:56:54.888Z,55.67
2018-02-15T16:59:22.373Z,44.70
2018-02-15T17:01:49.884Z,48.72
2018-02-15T17:04:17.380Z,42.05
2018-02-15T17:06:44.875Z,50.15
2018-02-15T17:09:12.364Z,47.80
2018-02-15T17:11:39.865Z,47.70
2018-02-15T17:14:07.348Z,46.92
2018-02-15T17:16:34.869Z,48.95
2018-02-15T17:19:02.359Z,54.05
2018-02-15T17:21:30.255Z,57.40
2018-02-15T17:23:57.804Z,62.08
2018-02-15T17:26:25.710Z,53.25
2018-02-15T17:28:53.268Z,46.37
2018-02-15T17:31:21.148Z,54.92
2018-02-15T17:33:49.052Z,44.92
2018-02-15T17:36:16.544Z,48.72
2018-02-15T17:38:44.048Z,41.92
2018-02-15T17:41:11.542Z,45.50
2018-02-15T17:43:39.512Z,37.13
2018-02-15T17:46:07.404Z,44.25
2018-02-15T17:48:35.295Z,38.13
2018-02-15T17:51:02.771Z,36.25
2018-02-15T17:53:30.279Z,32.22
2018-02-15T17:55:58.060Z,32.97
2018-02-15T17:58:25.555Z,34.58
2018-02-15T18:00:53.040Z,35.25
2018-02-15T18:03:20.944Z,36.30
2018-02-15T18:05:48.488Z,35.40
2018-02-15T18:08:16.466Z,37.80
2018-02-15T18:10:44.344Z,40.60
2018-02-15T18:13:11.872Z,38.58
2018-02-15T18:15:39.364Z,40.65
2018-02-15T18:18:06.863Z,40.28
2018-02-15T18:20:34.740Z,39.45
2018-02-15T18:23:02.637Z,44.53
2018-02-15T18:25:30.110Z,43.63
2018-02-15T18:27:57.611Z,39.13
2018-02-15T18:30:25.092Z,56.15
2018-02-15T18:32:52.587Z,52.35
2018-02-15T18:35:20.071Z,48.90
2018-02-15T18:37:48.048Z,58.65
2018-02-15T18:40:15.522Z,54.67
2018-02-15T18:42:43.441Z,57.53
2018-02-15T18:45:10.960Z,51.47
2018-02-15T18:47:38.571Z,53.42
2018-02-15T18:50:06.103Z,44.92
2018-02-15T18:52:33.713Z,41.45
2018-02-15T18:55:01.337Z,44.22
2018-02-15T18:57:28.829Z,50.97
2018-02-15T18:59:56.350Z,43.13
2018-02-15T19:02:23.823Z,38.85
2018-02-15T19:04:51.443Z,43.92
2018-02-15T19:07:18.935Z,44.55
2018-02-15T19:09:46.892Z,55.38
2018-02-15T19:12:14.376Z,43.03
2018-02-15T19:14:41.876Z,51.50
2018-02-15T19:17:09.367Z,52.22
2018-02-15T19:19:36.875Z,46.20
2018-02-15T19:22:04.453Z,45.97
2018-02-15T19:24:32.427Z,40.15
2018-02-15T19:26:59.916Z,50.65
2018-02-15T19:29:27.913Z,47.72
2018-02-15T19:31:55.408Z,47.42
2018-02-15T19:34:22.992Z,49.30
2018-02-15T19:36:50.472Z,49.47
2018-02-15T19:39:17.974Z,51.50
2018-02-15T19:41:45.847Z,49.28
2018-02-15T19:44:13.352Z,53.50
2018-02-15T19:46:40.840Z,43.72
2018-02-15T19:49:08.509Z,45.65
2018-02-15T19:51:36.045Z,42.13
2018-02-15T19:54:03.648Z,49.15
2018-02-15T19:56:31.140Z,43.87
2018-02-15T19:58:58.785Z,41.90
2018-02-15T20:01:26.313Z,41.08
2018-02-15T20:03:53.824Z,45.55
2018-02-15T20:06:21.315Z,49.17
2018-02-15T20:08:48.969Z,41.17
2018-02-15T20:11:16.495Z,61.95
2018-02-15T20:13:44.214Z,51.40
2018-02-15T20:16:11.752Z,41.88
2018-02-15T20:18:39.250Z,52.40
2018-02-15T20:21:07.144Z,59.08
2018-02-15T20:23:34.644Z,51.20
2018-02-15T20:26:07.872Z,59.20
2018-02-15T20:28:35.487Z,53.40
2018-02-15T20:31:02.997Z,45.03
2018-02-15T20:33:30.632Z,51.75
2018-02-15T20:35:58.179Z,51.20
2018-02-15T20:38:31.919Z,61.78
2018-02-15T20:40:59.493Z,63.22
2018-02-15T20:43:27.402Z,53.97
2018-02-15T20:45:54.902Z,58.60
2018-02-15T20:48:22.388Z,67.97
2018-02-15T20:50:55.693Z,61.40
2018-02-15T20:53:28.976Z,58.03
2018-02-15T20:55:56.572Z,75.45
2018-02-15T20:58:24.056Z,69.68
2018-02-15T21:00:52.044Z,77.00
2018-02-15T21:03:19.916Z,79.03
2018-02-15T21:05:47.913Z,80.53
2018-02-15T21:08:15.455Z,75.07
2018-02-15T21:10:42.950Z,59.20
2018-02-15T21:13:10.920Z,57.67
2018-02-15T21:15:38.815Z,50.38
2018-02-15T21:18:06.369Z,45.92
2018-02-15T21:20:34.304Z,54.95
2018-02-15T21:23:01.796Z,51.75
2018-02-15T21:25:29.308Z,61.42
2018-02-15T21:27:57.197Z,56.30
2018-02-15T21:30:24.712Z,52.75
2018-02-15T21:32:52.204Z,49.25
2018-02-15T21:35:19.816Z,43.60
2018-02-15T21:37:47.301Z,42.85
2018-02-15T21:40:14.904Z,45.97
2018-02-15T21:42:42.504Z,49.13
2018-02-15T21:45:10.402Z,49.75
2018-02-15T21:47:37.947Z,50.45
2018-02-15T21:50:05.438Z,46.35
2018-02-15T21:52:33.336Z,40.45
2018-02-15T21:55:00.827Z,43.92
2018-02-15T21:57:28.331Z,53.20
2018-02-15T21:59:55.965Z,56.45
2018-02-15T22:02:23.488Z,50.15
2018-02-15T22:04:51.464Z,53.30
2018-02-15T22:07:18.973Z,44.72
2018-02-15T22:09:46.546Z,57.45
2018-02-15T22:12:14.044Z,44.83
2018-02-15T22:14:41.680Z,62.40
2018-02-15T22:17:09.184Z,64.40
2018-02-15T22:19:36.878Z,50.20
2018-02-15T22:22:04.377Z,56.40
2018-02-15T22:24:32.264Z,53.35
2018-02-15T22:27:00.158Z,51.67
2018-02-15T22:29:27.647Z,52.85
2018-02-15T22:31:55.143Z,66.55
2018-02-15T22:34:22.632Z,64.72
2018-02-15T22:36:50.127Z,51.65
2018-02-15T22:39:18.021Z,83.62
2018-02-15T22:41:45.514Z,48.05
2018-02-15T22:44:13.016Z,66.22
2018-02-15T22:46:40.540Z,51.70
2018-02-15T22:49:08.028Z,52.42
2018-02-15T22:51:35.535Z,87.40
2018-02-15T22:54:03.014Z,51.92
2018-02-15T22:56:30.520Z,54.85
2018-02-15T22:58:58.008Z,48.22
2018-02-15T23:01:25.508Z,52.95
2018-02-15T23:03:53.072Z,53.38
2018-02-15T23:06:20.572Z,49.20
2018-02-15T23:08:48.056Z,41.53
2018-02-15T23:11:15.952Z,49.20
2018-02-15T23:13:43.436Z,79.93
2018-02-15T23:16:10.930Z,61.33
2018-02-15T23:18:38.441Z,54.80
2018-02-15T23:21:06.415Z,58.15
2018-02-15T23:23:33.915Z,154.35
2018-02-15T23:26:01.400Z,89.00
2018-02-15T23:28:28.926Z,132.70
2018-02-15T23:30:56.503Z,136.18
2018-02-15T23:33:24.009Z,79.97
2018-02-15T23:35:51.509Z,101.28
2018-02-15T23:38:19.012Z,98.55
2018-02-15T23:40:46.491Z,122.82
2018-02-15T23:43:14.387Z,109.07
2018-02-15T23:45:41.880Z,141.85
2018-02-15T23:48:09.430Z,141.57
2018-02-15T23:50:36.911Z,161.50
2018-02-15T23:53:04.415Z,121.28
2018-02-15T23:55:31.903Z,165.60
2018-02-15T23:57:59.407Z,115.18
